Time;durP1;ratioP1;P1;durP2;ratioP2;P2;SDS_P1;SDS_P2;PMS_P1;PMS_P2;Temp;Humidity;BMP_temperature;BMP_pressure;BME280_temperature;BME280_humidity;BME280_pressure;Samples;Min_cycle;Max_cycle;Signal;HPM_P1;HPM_P2
2021/12/21 00:00:17;;;;;;;;;;;0.10;99.90;;;0.15;62.88;99220.50;5037632;28;19928;-80
2021/12/21 00:03:03;;;;;;;;;;;0.00;99.90;;;0.10;63.16;99225.59;5027132;28;20254;-80
2021/12/21 00:05:30;;;;;;;;;;;0.00;99.90;;;0.20;62.23;99226.06;5022475;28;20011;-80
2021/12/21 00:08:01;;;;;;;;;;;-0.10;99.90;;;0.20;62.22;99233.22;5026088;28;19929;-80
2021/12/21 00:10:29;;;;;;;;;;;-0.10;99.90;;;0.19;62.21;99235.06;5024233;28;20275;-80
2021/12/21 00:18:26;;;;;;;;;;;-0.10;99.90;;;0.11;63.03;99232.56;5010245;28;19929;-80
2021/12/21 00:23:41;;;;;;;;;;;0.00;99.90;;;0.16;63.76;99224.00;5022158;28;20276;-80
2021/12/21 00:26:12;;;;;;;;;;;0.00;99.90;;;0.17;63.03;99237.13;5007132;28;19929;-81
2021/12/21 00:28:52;;;;;;;;;;;0.00;99.90;;;0.07;63.76;99247.31;5024518;28;19951;-81
2021/12/21 00:31:18;;;;;;;;;;;0.00;99.90;;;0.09;63.58;99244.47;5042772;28;19986;-80
2021/12/21 00:33:46;;;;;;;;;;;0.00;99.90;;;0.15;63.72;99238.31;5025261;28;20425;-80
2021/12/21 00:36:14;;;;;;;;;;;-0.10;99.90;;;0.16;64.06;99248.81;5001964;28;19928;-80
2021/12/21 00:38:41;;;;;;;;;;;-0.10;99.90;;;0.09;64.25;99247.13;5021110;28;19994;-80
2021/12/21 00:41:07;;;;;;;;;;;0.00;99.90;;;0.07;63.87;99252.63;5021127;28;19968;-80
2021/12/21 00:43:33;;;;;;;;;;;0.00;99.90;;;0.13;64.38;99249.22;5028800;28;20364;-80
2021/12/21 00:45:59;;;;;;;;;;;0.00;99.90;;;0.15;63.59;99252.50;5004538;28;20394;-80
2021/12/21 00:48:30;;;;;;;;;;;0.00;99.90;;;0.17;63.67;99252.31;5037975;28;19928;-80
2021/12/21 00:50:57;;;;;;;;;;;0.10;99.90;;;0.17;62.97;99261.13;5020025;28;19924;-80
2021/12/21 00:53:24;;;;;;;;;;;0.10;99.90;;;0.09;63.12;99253.28;5009393;28;19933;-80
2021/12/21 00:55:50;;;;;;;;;;;0.00;99.90;;;0.07;62.75;99260.66;5023735;28;19935;-80
2021/12/21 00:58:16;;;;;;;;;;;0.00;99.90;;;0.11;62.33;99253.09;5019788;28;20399;-81
2021/12/21 01:00:42;;;;;;;;;;;-0.10;99.90;;;0.09;62.35;99258.59;5037025;28;19925;-80
2021/12/21 01:03:11;;;;;;;;;;;-0.10;99.90;;;0.11;62.25;99259.25;5026206;28;20011;-81
2021/12/21 01:05:46;;;;;;;;;;;-0.10;99.90;;;0.14;62.57;99255.38;5041111;28;19928;-81
2021/12/21 01:08:17;;;;;;;;;;;-0.10;99.90;;;0.16;62.37;99258.66;5038471;28;19967;-81
2021/12/21 01:10:53;;;;;;;;;;;-0.10;99.90;;;0.12;62.21;99260.06;5007859;28;19957;-81
2021/12/21 01:18:23;;;;;;;;;;;-0.10;99.90;;;0.07;62.47;99262.50;5038814;28;20265;-81
2021/12/21 01:21:02;;;;;;;;;;;-0.10;99.90;;;0.04;62.24;99263.72;5023672;28;19939;-81
2021/12/21 01:26:08;;;;;;;;;;;-0.10;99.90;;;0.05;62.48;99262.72;5025473;28;20276;-81
2021/12/21 01:28:44;;;;;;;;;;;-0.10;99.90;;;0.10;62.71;99262.09;5026243;28;19932;-81
2021/12/21 01:36:14;;;;;;;;;;;0.00;99.90;;;0.22;62.65;99269.38;5019495;28;19951;-81
2021/12/21 01:38:52;;;;;;;;;;;0.00;99.90;;;0.27;63.24;99267.97;5019203;28;20019;-81
2021/12/21 01:41:38;;;;;;;;;;;0.10;99.90;;;0.29;62.49;99264.09;5008963;28;20453;-81
2021/12/21 01:49:49;;;;;;;;;;;0.20;99.90;;;0.46;62.17;99261.09;4988111;28;19961;-81
2021/12/21 01:52:20;;;;;;;;;;;0.20;99.90;;;0.49;62.02;99261.53;5036115;28;19933;-82
2021/12/21 01:54:47;;;;;;;;;;;0.20;99.90;;;0.48;62.07;99257.19;5006445;28;20019;-82
2021/12/21 01:57:12;;;;;;;;;;;0.30;99.90;;;0.45;62.35;99260.28;5006769;28;19929;-81
2021/12/21 01:59:39;;;;;;;;;;;0.30;99.90;;;0.41;62.18;99265.19;5019495;28;20370;-82
2021/12/21 02:02:06;;;;;;;;;;;0.30;99.90;;;0.48;61.82;99259.88;5037183;28;19988;-82
2021/12/21 02:04:32;;;;;;;;;;;0.30;99.90;;;0.42;62.40;99256.16;5021587;28;19976;-81
2021/12/21 02:06:58;;;;;;;;;;;0.30;99.90;;;0.48;62.38;99259.88;5038817;28;19951;-82
2021/12/21 02:09:31;;;;;;;;;;;0.40;99.90;;;0.47;62.35;99262.75;5005654;28;19935;-82
2021/12/21 02:11:57;;;;;;;;;;;0.40;99.90;;;0.47;61.88;99255.56;5024405;28;20447;-82
2021/12/21 02:14:23;;;;;;;;;;;0.40;99.90;;;0.57;62.02;99257.88;5018917;28;19986;-82
2021/12/21 02:17:16;;;;;;;;;;;0.40;99.90;;;0.56;61.92;99261.56;5018035;28;19929;-82
2021/12/21 02:19:41;;;;;;;;;;;0.40;99.90;;;0.57;62.15;99256.03;5040890;28;19971;-82
2021/12/21 02:22:12;;;;;;;;;;;0.40;99.90;;;0.59;61.93;99255.84;5019735;28;19950;-82
2021/12/21 02:24:56;;;;;;;;;;;0.50;99.90;;;0.63;62.14;99249.88;5048506;28;20296;-82
2021/12/21 02:27:28;;;;;;;;;;;0.50;99.90;;;0.67;62.10;99254.84;5007336;28;19956;-82
2021/12/21 02:29:54;;;;;;;;;;;0.50;99.90;;;0.68;61.91;99249.28;5043042;28;19932;-82
2021/12/21 02:32:22;;;;;;;;;;;0.50;99.90;;;0.68;62.08;99249.28;5022194;28;19929;-82
2021/12/21 02:34:48;;;;;;;;;;;0.60;99.90;;;0.69;61.94;99250.13;5023114;28;19928;-82
2021/12/21 02:37:14;;;;;;;;;;;0.60;99.90;;;0.74;61.98;99258.34;5020411;28;19995;-82
2021/12/21 02:39:40;;;;;;;;;;;0.60;99.90;;;0.72;61.92;99253.22;5028272;28;19925;-82
2021/12/21 02:42:06;;;;;;;;;;;0.60;99.90;;;0.71;62.29;99258.75;5028933;28;19931;-82
2021/12/21 02:44:32;;;;;;;;;;;0.70;99.90;;;0.84;61.71;99250.78;5022775;28;20019;-81
2021/12/21 02:46:58;;;;;;;;;;;0.70;99.90;;;0.88;61.61;99254.72;5024826;28;19929;-82
2021/12/21 02:49:24;;;;;;;;;;;0.70;99.90;;;0.81;62.05;99253.88;5026119;28;19932;-82
2021/12/21 02:51:49;;;;;;;;;;;0.70;99.90;;;0.82;62.06;99245.66;5009044;28;19929;-82
2021/12/21 02:54:17;;;;;;;;;;;0.80;99.90;;;0.85;61.95;99242.59;5035321;28;19929;-81
2021/12/21 02:56:43;;;;;;;;;;;0.70;99.90;;;0.82;61.91;99248.34;5027489;28;20560;-82
2021/12/21 02:59:09;;;;;;;;;;;0.80;99.90;;;0.83;62.10;99241.97;5025297;28;19968;-82
2021/12/21 03:01:35;;;;;;;;;;;0.80;99.90;;;0.77;62.45;99239.28;5027072;28;20368;-81
2021/12/21 03:04:02;;;;;;;;;;;0.80;99.90;;;0.80;62.62;99244.22;5037058;28;19928;-82
2021/12/21 03:07:17;;;;;;;;;;;0.70;99.90;;;0.82;62.30;99244.84;5041176;28;20071;-82
2021/12/21 03:11:56;;;;;;;;;;;0.70;99.90;;;0.82;62.78;99261.69;5030289;28;19932;-82
2021/12/21 03:14:26;;;;;;;;;;;0.80;99.90;;;0.76;62.17;99254.47;5022604;28;19932;-81
2021/12/21 03:16:53;;;;;;;;;;;0.80;99.90;;;0.72;62.32;99255.09;5026650;28;19992;-82
2021/12/21 03:19:19;;;;;;;;;;;0.70;99.90;;;0.71;62.38;99253.41;5025346;28;19933;-81
2021/12/21 03:21:45;;;;;;;;;;;0.80;99.90;;;0.71;62.42;99240.88;5042401;28;20021;-82
2021/12/21 03:24:11;;;;;;;;;;;0.70;99.90;;;0.74;62.78;99253.00;5013157;28;19967;-82
2021/12/21 03:26:37;;;;;;;;;;;0.80;99.90;;;0.86;62.43;99256.78;5024446;28;19929;-81
2021/12/21 03:29:04;;;;;;;;;;;0.80;99.90;;;0.86;62.63;99246.09;5026482;28;20503;-82
2021/12/21 03:31:30;;;;;;;;;;;0.80;99.90;;;0.79;62.37;99248.75;5027124;28;20267;-82
2021/12/21 03:33:57;;;;;;;;;;;0.80;99.90;;;0.79;62.15;99243.41;5029885;28;19932;-82
2021/12/21 03:36:23;;;;;;;;;;;0.80;99.90;;;0.78;62.08;99238.25;5035067;28;19928;-81
2021/12/21 03:39:15;;;;;;;;;;;0.70;99.90;;;0.78;61.51;99244.41;5005290;28;19931;-81
2021/12/21 03:41:40;;;;;;;;;;;0.70;99.90;;;0.62;61.43;99237.56;5039282;28;19953;-82
2021/12/21 03:44:08;;;;;;;;;;;0.60;99.90;;;0.58;61.72;99241.66;5024028;28;19924;-81
2021/12/21 03:46:34;;;;;;;;;;;0.60;99.90;;;0.56;61.73;99243.72;5023391;28;20434;-82
2021/12/21 03:49:11;;;;;;;;;;;0.60;99.90;;;0.57;61.74;99263.22;5022037;28;19928;-81
2021/12/21 03:51:37;;;;;;;;;;;0.60;99.90;;;0.77;61.52;99264.13;5025696;28;19960;-81
2021/12/21 03:54:03;;;;;;;;;;;0.60;99.90;;;0.75;61.18;99258.16;5040184;28;19935;-81
2021/12/21 03:56:38;;;;;;;;;;;0.60;99.90;;;0.74;61.90;99266.38;5025051;28;19928;-81
2021/12/21 03:59:04;;;;;;;;;;;0.60;99.90;;;0.64;61.77;99270.25;5041871;28;19939;-82
2021/12/21 04:01:30;;;;;;;;;;;0.60;99.90;;;0.68;61.71;99262.66;5024694;28;20015;-81
2021/12/21 04:03:56;;;;;;;;;;;0.60;99.90;;;0.61;61.89;99261.78;5046741;28;19950;-81
2021/12/21 04:06:22;;;;;;;;;;;0.60;99.90;;;0.62;62.08;99258.94;5025155;28;19981;-81
2021/12/21 04:08:48;;;;;;;;;;;0.60;99.90;;;0.63;61.89;99262.41;5008292;28;19928;-81
2021/12/21 04:11:14;;;;;;;;;;;0.60;99.90;;;0.61;61.58;99262.63;5019852;28;19933;-81
2021/12/21 04:13:40;;;;;;;;;;;0.50;99.90;;;0.74;61.37;99258.34;5023896;28;19925;-81
2021/12/21 04:16:06;;;;;;;;;;;0.50;99.90;;;0.63;61.62;99257.06;5037328;28;19925;-81
2021/12/21 04:18:38;;;;;;;;;;;0.60;99.90;;;0.75;61.38;99260.03;5039998;28;20330;-81
2021/12/21 04:21:06;;;;;;;;;;;0.50;99.90;;;0.62;61.68;99255.44;5024255;28;20012;-82
2021/12/21 04:23:32;;;;;;;;;;;0.50;99.90;;;0.66;61.78;99267.34;5003860;28;19928;-81
2021/12/21 04:25:58;;;;;;;;;;;0.60;99.90;;;0.58;61.62;99260.34;5023407;28;19987;-82
2021/12/21 04:28:24;;;;;;;;;;;0.50;99.90;;;0.57;62.09;99266.72;5015412;28;20391;-81
2021/12/21 04:30:50;;;;;;;;;;;0.50;99.90;;;0.61;61.96;99262.63;5021000;28;19981;-81
2021/12/21 04:33:16;;;;;;;;;;;0.60;99.90;;;0.64;61.81;99264.91;5006328;28;20001;-81
2021/12/21 04:35:42;;;;;;;;;;;0.60;99.90;;;0.63;61.97;99262.41;5019596;28;19933;-81
2021/12/21 04:38:26;;;;;;;;;;;0.60;99.90;;;0.72;61.83;99263.91;5022322;28;19929;-81
2021/12/21 04:41:16;;;;;;;;;;;0.50;99.90;;;0.70;62.09;99268.63;5022472;28;19929;-81
2021/12/21 04:43:56;;;;;;;;;;;0.60;99.90;;;0.65;61.51;99271.06;5039673;28;19934;-81
2021/12/21 04:46:22;;;;;;;;;;;0.50;99.90;;;0.66;61.70;99267.34;5019009;28;20380;-81
2021/12/21 04:48:48;;;;;;;;;;;0.50;99.90;;;0.63;61.51;99279.25;5023526;28;19928;-81
2021/12/21 04:51:14;;;;;;;;;;;0.50;99.90;;;0.63;62.02;99267.75;5003569;28;19932;-81
2021/12/21 04:53:40;;;;;;;;;;;0.60;99.90;;;0.68;61.95;99273.34;5035777;28;20018;-81
2021/12/21 04:56:06;;;;;;;;;;;0.60;99.90;;;0.67;61.98;99273.53;5018384;28;19963;-81
2021/12/21 04:58:32;;;;;;;;;;;0.60;99.90;;;0.61;61.96;99273.31;5026947;28;19936;-82
2021/12/21 05:01:00;;;;;;;;;;;0.60;99.90;;;0.55;61.77;99270.59;5026002;28;19940;-82
2021/12/21 05:03:26;;;;;;;;;;;0.50;99.90;;;0.58;62.22;99275.53;5022494;28;19936;-82
2021/12/21 05:05:53;;;;;;;;;;;0.60;99.90;;;0.82;61.74;99279.56;5022936;28;19929;-81
2021/12/21 05:08:23;;;;;;;;;;;0.50;99.90;;;0.74;61.60;99277.03;5038706;28;19933;-82
2021/12/21 05:10:54;;;;;;;;;;;0.50;99.90;;;0.72;61.50;99287.13;5041762;28;19928;-81
2021/12/21 05:13:24;;;;;;;;;;;0.60;99.90;;;0.74;61.40;99275.22;5017105;28;20020;-82
2021/12/21 05:15:50;;;;;;;;;;;0.60;99.90;;;0.68;61.33;99292.03;5022771;28;19924;-82
2021/12/21 05:18:16;;;;;;;;;;;0.60;99.90;;;0.70;61.95;99287.31;5023508;28;19936;-82
2021/12/21 05:20:42;;;;;;;;;;;0.60;99.90;;;0.71;62.37;99294.28;5037617;28;20023;-82
2021/12/21 05:23:08;;;;;;;;;;;0.60;99.90;;;0.73;62.40;99299.44;5036175;28;19935;-82
2021/12/21 05:25:34;;;;;;;;;;;0.60;99.90;;;0.71;62.31;99291.63;5007138;28;20292;-82
2021/12/21 05:28:00;;;;;;;;;;;0.60;99.90;;;0.65;63.13;99292.41;5027669;28;25171;-82
2021/12/21 05:30:26;;;;;;;;;;;0.60;99.90;;;0.81;63.20;99291.25;5036970;28;19929;-82
2021/12/21 05:32:53;;;;;;;;;;;0.60;99.90;;;0.78;63.40;99289.81;5022672;28;19924;-82
2021/12/21 05:35:19;;;;;;;;;;;0.60;99.90;;;0.82;63.33;99287.59;5022309;28;20397;-82
2021/12/21 05:37:46;;;;;;;;;;;0.70;99.90;;;0.72;63.81;99292.47;5032886;28;19939;-81
2021/12/21 05:40:15;;;;;;;;;;;0.70;99.90;;;0.82;63.81;99288.41;5022477;28;19944;-80
2021/12/21 05:42:43;;;;;;;;;;;0.70;99.90;;;0.79;64.39;99287.97;5023855;28;20733;-81
2021/12/21 05:45:10;;;;;;;;;;;0.70;99.90;;;0.85;64.60;99296.00;5018868;28;19928;-81
2021/12/21 05:47:36;;;;;;;;;;;0.80;99.90;;;0.76;64.63;99299.03;5011888;28;19932;-81
2021/12/21 05:50:04;;;;;;;;;;;0.70;99.90;;;0.78;65.49;99303.16;5042753;28;19932;-81
2021/12/21 05:52:32;;;;;;;;;;;0.70;99.90;;;0.97;64.75;99301.63;5036057;28;19929;-80
2021/12/21 05:54:58;;;;;;;;;;;0.80;99.90;;;0.94;64.86;99294.00;5022584;28;20383;-81
2021/12/21 05:57:24;;;;;;;;;;;0.80;99.90;;;1.22;64.08;99298.41;5049922;28;20025;-83
2021/12/21 05:59:50;;;;;;;;;;;0.80;99.90;;;1.42;63.77;99293.13;5038153;28;19935;-83
2021/12/21 06:02:17;;;;;;;;;;;0.80;99.90;;;1.11;64.54;99297.16;5022571;28;19935;-83
2021/12/21 06:04:43;;;;;;;;;;;0.90;99.90;;;1.05;65.06;99301.44;5021016;28;19925;-82
2021/12/21 06:07:09;;;;;;;;;;;0.90;99.90;;;1.05;64.55;99293.44;5015725;28;20281;-83
2021/12/21 06:09:35;;;;;;;;;;;1.00;99.90;;;1.09;64.33;99293.84;5036534;28;20262;-83
2021/12/21 06:12:18;;;;;;;;;;;1.00;99.90;;;1.12;64.35;99297.97;5002895;28;19925;-83
2021/12/21 06:28:08;;;;;;;;;;;1.20;99.90;;;1.18;64.11;99315.88;5029904;28;19925;-82
2021/12/21 06:30:34;;;;;;;;;;;1.20;99.90;;;1.09;63.88;99328.56;5022766;28;19924;-83
2021/12/21 06:33:00;;;;;;;;;;;1.20;99.90;;;1.04;64.35;99329.19;5019638;28;19992;-82
2021/12/21 06:35:26;;;;;;;;;;;1.20;99.90;;;0.97;65.05;99339.03;5005811;28;19924;-83
2021/12/21 06:37:52;;;;;;;;;;;1.20;99.90;;;1.06;65.42;99343.16;4999393;28;19929;-82
2021/12/21 06:40:19;;;;;;;;;;;1.10;99.90;;;1.04;65.66;99350.56;5000453;28;19925;-83
2021/12/21 06:42:49;;;;;;;;;;;1.20;99.90;;;0.74;65.96;99354.47;5039191;28;20016;-83
2021/12/21 06:45:27;;;;;;;;;;;1.00;99.90;;;0.50;65.71;99353.13;5022775;28;19936;-82
2021/12/21 06:53:22;;;;;;;;;;;0.50;99.90;;;0.43;66.37;99369.06;5024557;28;20008;-82
2021/12/21 06:55:48;;;;;;;;;;;0.50;99.90;;;0.39;66.46;99357.97;5006404;28;20277;-82
2021/12/21 06:58:13;;;;;;;;;;;0.40;99.90;;;0.42;66.60;99362.91;5000487;28;19975;-82
2021/12/21 07:00:40;;;;;;;;;;;0.40;99.90;;;0.46;66.79;99360.69;5007565;28;19933;-83
2021/12/21 07:03:06;;;;;;;;;;;0.50;99.90;;;0.40;66.10;99364.94;4998283;28;19931;-83
2021/12/21 07:05:32;;;;;;;;;;;0.50;99.90;;;0.35;66.07;99369.22;5034871;28;19959;-83
2021/12/21 07:07:58;;;;;;;;;;;0.40;99.90;;;0.37;65.82;99369.84;5003819;28;20027;-83
2021/12/21 07:10:29;;;;;;;;;;;0.50;99.90;;;0.45;65.68;99372.38;5035582;28;19928;-83
2021/12/21 07:18:28;;;;;;;;;;;0.60;99.90;;;0.53;65.39;99380.22;5037066;28;19947;-82
2021/12/21 07:20:57;;;;;;;;;;;0.60;99.90;;;0.56;65.22;99390.53;5023624;28;20355;-85
2021/12/21 07:23:23;;;;;;;;;;;0.70;99.90;;;0.58;65.79;99388.47;5039840;28;19924;-83
2021/12/21 07:25:50;;;;;;;;;;;0.70;99.90;;;0.61;65.40;99395.28;5006576;28;19924;-83
2021/12/21 07:28:16;;;;;;;;;;;0.80;99.90;;;0.79;65.48;99386.78;5005906;28;19929;-83
2021/12/21 07:30:42;;;;;;;;;;;0.90;99.90;;;0.81;64.46;99385.56;5008561;28;20368;-83
2021/12/21 07:33:08;;;;;;;;;;;0.90;99.90;;;0.78;64.18;99393.97;5010733;28;19942;-82
2021/12/21 07:35:34;;;;;;;;;;;1.00;99.90;;;0.74;63.15;99389.19;5020323;28;19940;-82
2021/12/21 07:38:00;;;;;;;;;;;0.90;99.90;;;0.65;63.45;99397.38;5020219;28;19928;-82
2021/12/21 07:40:26;;;;;;;;;;;0.90;99.90;;;0.80;63.26;99394.59;5018876;28;19986;-82
2021/12/21 07:42:52;;;;;;;;;;;0.90;99.90;;;0.95;63.12;99393.66;5004089;28;20395;-82
2021/12/21 07:45:18;;;;;;;;;;;1.00;99.90;;;0.99;63.21;99395.75;5004633;28;19928;-82
2021/12/21 07:47:44;;;;;;;;;;;1.20;99.90;;;1.03;63.00;99401.53;5023184;28;19925;-82
2021/12/21 07:50:11;;;;;;;;;;;1.30;99.90;;;1.22;62.22;99400.81;5017309;28;19960;-82
2021/12/21 07:52:37;;;;;;;;;;;1.40;99.90;;;1.31;62.65;99404.13;5001998;28;20442;-82
2021/12/21 07:55:03;;;;;;;;;;;1.50;99.90;;;1.19;62.21;99406.53;5008330;28;20051;-80
2021/12/21 07:57:31;;;;;;;;;;;1.60;99.90;;;1.16;62.47;99400.75;5017997;28;20016;-80
2021/12/21 07:59:57;;;;;;;;;;;1.50;99.90;;;1.04;62.27;99397.81;5018467;28;19967;-80
2021/12/21 08:02:25;;;;;;;;;;;1.40;99.90;;;1.06;61.13;99404.59;5002243;28;20387;-80
2021/12/21 08:04:55;;;;;;;;;;;1.40;99.90;;;1.03;60.47;99405.00;5019916;28;19925;-80
2021/12/21 08:07:24;;;;;;;;;;;1.40;99.90;;;1.06;58.64;99407.28;5019347;28;19928;-80
2021/12/21 08:09:54;;;;;;;;;;;1.30;99.90;;;1.06;58.13;99396.59;5022063;28;19932;-80
2021/12/21 08:12:21;;;;;;;;;;;1.30;99.90;;;1.05;58.12;99392.28;5020708;28;19976;-79
2021/12/21 08:14:51;;;;;;;;;;;1.20;99.90;;;1.11;58.04;99395.19;5020524;28;19936;-80
2021/12/21 08:17:18;;;;;;;;;;;1.30;99.90;;;0.97;58.00;99397.78;5023079;28;19951;-82
2021/12/21 08:19:46;;;;;;;;;;;1.30;99.90;;;0.85;57.65;99400.19;4999937;28;19932;-82
2021/12/21 08:22:13;;;;;;;;;;;1.20;99.90;;;0.89;57.96;99405.13;5037295;28;20445;-83
2021/12/21 08:24:42;;;;;;;;;;;1.10;99.90;;;0.71;57.39;99408.28;5028726;28;19925;-83
2021/12/21 08:27:09;;;;;;;;;;;1.00;99.90;;;0.57;58.08;99413.53;5003959;28;20403;-82
2021/12/21 08:29:36;;;;;;;;;;;0.90;99.90;;;0.45;58.05;99412.41;5016245;28;20384;-82
2021/12/21 08:32:04;;;;;;;;;;;0.80;99.90;;;0.48;58.45;99413.88;5021457;28;20093;-82
2021/12/21 08:34:32;;;;;;;;;;;0.80;99.90;;;0.70;58.28;99420.00;5034587;28;20340;-82
2021/12/21 08:36:59;;;;;;;;;;;0.90;99.90;;;0.82;58.04;99421.94;5041244;28;20351;-82
2021/12/21 08:39:30;;;;;;;;;;;0.90;99.90;;;1.04;57.91;99420.03;5003746;28;19942;-82
2021/12/21 08:41:59;;;;;;;;;;;1.10;99.90;;;1.31;58.21;99422.84;5037031;28;19925;-82
2021/12/21 08:44:26;;;;;;;;;;;1.40;99.90;;;1.69;57.49;99427.72;5000745;28;19933;-82
2021/12/21 08:46:56;;;;;;;;;;;1.70;99.90;;;1.89;57.85;99427.78;5003875;28;19929;-82
2021/12/21 08:49:25;;;;;;;;;;;2.10;99.90;;;1.99;57.34;99430.09;5004734;28;19925;-82
2021/12/21 08:51:51;;;;;;;;;;;2.30;99.90;;;1.91;57.22;99433.78;5024942;28;19932;-82
2021/12/21 08:54:18;;;;;;;;;;;2.30;99.90;;;1.75;57.05;99429.59;5005440;28;19935;-82
2021/12/21 08:56:48;;;;;;;;;;;2.20;99.90;;;1.69;56.21;99435.75;5037350;28;19939;-82
2021/12/21 08:59:18;;;;;;;;;;;2.10;99.90;;;1.68;56.17;99429.59;5034838;28;19936;-82
2021/12/21 09:01:45;;;;;;;;;;;2.10;99.90;;;1.82;56.03;99435.78;5022973;28;19935;-82
2021/12/21 09:04:16;;;;;;;;;;;2.30;99.90;;;1.90;56.80;99434.78;5018007;28;19925;-82
2021/12/21 09:06:42;;;;;;;;;;;2.30;99.90;;;1.79;56.27;99430.03;5020414;28;19932;-82
2021/12/21 09:09:09;;;;;;;;;;;2.30;99.90;;;1.61;56.68;99433.25;5006413;28;19929;-83
2021/12/21 09:11:37;;;;;;;;;;;2.10;99.90;;;1.49;56.34;99433.00;5001517;28;20307;-83
2021/12/21 09:14:05;;;;;;;;;;;2.00;99.90;;;1.47;56.20;99430.50;5007539;28;20334;-83
2021/12/21 09:16:31;;;;;;;;;;;1.90;99.90;;;1.39;55.95;99438.69;5004710;28;20076;-83
2021/12/21 09:18:58;;;;;;;;;;;1.70;99.90;;;1.24;56.25;99430.81;5021193;28;20355;-83
2021/12/21 09:21:25;;;;;;;;;;;1.60;99.90;;;1.11;56.82;99438.75;5002482;28;19932;-82
2021/12/21 09:23:53;;;;;;;;;;;1.50;99.90;;;1.08;56.36;99437.31;5020315;28;19929;-83
2021/12/21 09:26:20;;;;;;;;;;;1.40;99.90;;;0.93;55.76;99446.47;5006085;28;20659;-83
2021/12/21 09:28:47;;;;;;;;;;;1.20;99.90;;;1.05;56.19;99445.72;5037576;28;19928;-83
2021/12/21 09:31:14;;;;;;;;;;;1.20;99.90;;;1.00;56.15;99448.16;5005455;28;20338;-83
2021/12/21 09:33:41;;;;;;;;;;;1.20;99.90;;;1.02;55.67;99448.78;5015365;28;19935;-83
2021/12/21 09:36:07;;;;;;;;;;;1.20;99.90;;;1.12;55.60;99432.41;5014963;28;19929;-83
2021/12/21 09:38:34;;;;;;;;;;;1.30;99.90;;;1.18;55.22;99444.16;4995857;28;19992;-83
2021/12/21 09:41:03;;;;;;;;;;;1.30;99.90;;;1.08;54.12;99441.81;5009128;28;19932;-83
2021/12/21 09:43:33;;;;;;;;;;;1.40;99.90;;;1.15;52.96;99436.53;5011375;28;19960;-83
2021/12/21 09:46:00;;;;;;;;;;;1.40;99.90;;;1.07;51.44;99435.66;4995492;28;19936;-86
2021/12/21 09:48:28;;;;;;;;;;;1.30;99.90;;;1.00;51.76;99432.13;4994851;28;19968;-84
2021/12/21 09:50:55;;;;;;;;;;;1.20;99.90;;;0.98;52.38;99444.84;4994958;28;19933;-84
2021/12/21 09:53:23;;;;;;;;;;;1.20;99.90;;;0.88;52.56;99436.34;4994744;28;19936;-84
2021/12/21 09:55:50;;;;;;;;;;;1.20;99.90;;;0.88;51.77;99415.00;4998537;28;20046;-84
2021/12/21 09:58:18;;;;;;;;;;;1.20;99.90;;;0.88;51.49;99436.34;5007553;28;19933;-84
2021/12/21 10:00:45;;;;;;;;;;;1.30;99.90;;;0.99;52.31;99448.34;5015473;28;20036;-84
2021/12/21 10:03:12;;;;;;;;;;;1.20;99.90;;;1.04;51.34;99441.41;5012462;28;19952;-84
2021/12/21 10:05:41;;;;;;;;;;;1.20;99.90;;;0.96;51.19;99454.06;5011671;28;20326;-84
2021/12/21 10:08:11;;;;;;;;;;;1.20;99.90;;;0.84;51.16;99446.63;4995577;28;20026;-84
2021/12/21 10:10:45;;;;;;;;;;;1.10;99.90;;;0.74;51.72;99447.94;5008394;28;19936;-83
2021/12/21 10:13:13;;;;;;;;;;;1.10;99.90;;;0.64;51.91;99446.47;4995663;28;20479;-83
2021/12/21 10:15:43;;;;;;;;;;;1.00;99.90;;;0.64;52.26;99449.13;5015105;28;19979;-85
2021/12/21 10:18:10;;;;;;;;;;;1.00;99.90;;;0.79;52.69;99445.53;5000716;28;19929;-85
2021/12/21 10:20:43;;;;;;;;;;;1.00;99.90;;;0.89;53.07;99450.53;5015115;28;20657;-85
2021/12/21 10:23:29;;;;;;;;;;;1.10;99.90;;;0.94;52.82;99450.78;5012806;28;19929;-85
2021/12/21 10:26:10;;;;;;;;;;;1.20;99.90;;;0.95;52.10;99450.59;5029726;28;20381;-84
2021/12/21 10:28:39;;;;;;;;;;;1.20;99.90;;;0.95;52.57;99453.25;5014284;28;19949;-85
2021/12/21 10:31:25;;;;;;;;;;;1.20;99.90;;;0.95;52.56;99455.94;5032997;28;19929;-85
2021/12/21 10:33:52;;;;;;;;;;;1.20;99.90;;;0.98;51.73;99457.38;5001197;28;19933;-85
2021/12/21 10:36:19;;;;;;;;;;;1.30;99.90;;;0.99;52.90;99465.22;5000089;28;19986;-85
2021/12/21 10:38:50;;;;;;;;;;;1.30;99.90;;;1.13;52.93;99455.44;5016846;28;19925;-84
2021/12/21 10:41:31;;;;;;;;;;;1.40;99.90;;;1.21;52.21;99449.91;5015394;28;20292;-85
2021/12/21 10:44:16;;;;;;;;;;;1.60;99.90;;;1.43;52.50;99449.84;5031084;28;19926;-85
2021/12/21 10:46:47;;;;;;;;;;;1.70;99.90;;;1.79;50.61;99446.06;5003840;28;19929;-84
2021/12/21 10:49:15;;;;;;;;;;;2.00;99.90;;;2.37;50.85;99451.75;5015417;28;20682;-84
2021/12/21 10:52:01;;;;;;;;;;;2.50;99.90;;;2.70;49.10;99442.94;5025019;28;19925;-84
2021/12/21 10:54:32;;;;;;;;;;;3.00;99.90;;;3.18;47.67;99442.63;5018710;28;20304;-84
2021/12/21 10:57:12;;;;;;;;;;;3.50;99.90;;;3.17;46.90;99444.50;5019105;28;20405;-84
2021/12/21 10:59:40;;;;;;;;;;;3.70;99.40;;;2.92;46.40;99444.31;5005944;28;19925;-84
2021/12/21 11:02:11;;;;;;;;;;;3.60;98.60;;;2.42;48.27;99443.94;5007111;28;20031;-84
2021/12/21 11:04:42;;;;;;;;;;;3.30;98.90;;;1.99;48.46;99440.78;5001962;28;19929;-84
2021/12/21 11:07:21;;;;;;;;;;;2.80;98.80;;;1.81;48.09;99436.81;5001160;28;19956;-83
2021/12/21 11:10:15;;;;;;;;;;;2.50;98.90;;;1.66;49.46;99444.19;5042583;28;19925;-84
2021/12/21 11:12:52;;;;;;;;;;;2.20;99.50;;;1.50;47.32;99442.66;5037065;28;19936;-84
2021/12/21 11:15:33;;;;;;;;;;;2.00;98.70;;;1.32;47.39;99439.69;5018283;28;20398;-83
2021/12/21 11:18:02;;;;;;;;;;;1.70;98.30;;;1.15;48.18;99437.34;5019326;28;19925;-84
2021/12/21 11:20:29;;;;;;;;;;;1.50;98.50;;;1.20;48.37;99442.94;5013934;28;19971;-84
2021/12/21 11:22:55;;;;;;;;;;;1.30;99.20;;;1.10;48.96;99441.66;4998604;28;19939;-84
2021/12/21 11:25:22;;;;;;;;;;;1.20;99.60;;;1.05;48.91;99440.38;5002175;28;20472;-84
2021/12/21 11:27:49;;;;;;;;;;;1.20;99.80;;;0.99;49.36;99443.84;5017442;28;19924;-83
2021/12/21 11:30:20;;;;;;;;;;;1.20;99.70;;;1.02;49.69;99432.75;5018407;28;19933;-84
2021/12/21 11:32:49;;;;;;;;;;;1.20;99.90;;;1.12;49.89;99431.56;5017776;28;20284;-83
2021/12/21 11:37:47;;;;;;;;;;;1.40;99.90;;;1.45;49.56;99426.38;5037591;28;20169;-84
2021/12/21 11:40:15;;;;;;;;;;;1.60;99.90;;;1.98;48.91;99429.22;5006247;28;20357;-84
2021/12/21 11:42:51;;;;;;;;;;;2.00;99.90;;;2.41;48.35;99420.03;5008266;28;20351;-84
2021/12/21 11:45:43;;;;;;;;;;;2.50;99.70;;;2.70;47.74;99425.00;5046939;28;20461;-84
2021/12/21 11:48:09;;;;;;;;;;;3.00;99.30;;;3.00;47.82;99416.47;5011684;28;19928;-84
2021/12/21 11:50:40;;;;;;;;;;;3.40;98.80;;;3.20;45.68;99413.75;5051607;28;20337;-84
2021/12/21 11:53:08;;;;;;;;;;;3.70;97.50;;;3.41;45.33;99410.81;5025112;28;20402;-84
2021/12/21 11:55:37;;;;;;;;;;;4.00;96.90;;;3.77;43.07;99413.97;5022532;28;20303;-84
2021/12/21 11:58:38;;;;;;;;;;;4.30;95.40;;;3.74;44.45;99409.00;5020342;28;19929;-84
2021/12/21 12:01:20;;;;;;;;;;;4.40;94.80;;;3.67;41.69;99422.47;5009099;28;20291;-84
2021/12/21 12:04:01;;;;;;;;;;;4.40;93.10;;;3.53;41.71;99426.25;5004384;28;19933;-84
2021/12/21 12:06:46;;;;;;;;;;;4.30;92.30;;;3.36;40.64;99425.88;5023625;28;19936;-83
2021/12/21 12:09:30;;;;;;;;;;;4.20;90.90;;;3.12;41.83;99427.41;5042627;28;19982;-83
2021/12/21 12:12:13;;;;;;;;;;;4.00;90.70;;;2.81;44.26;99434.25;5015631;28;19975;-83
2021/12/21 12:14:44;;;;;;;;;;;3.70;92.80;;;2.36;45.58;99439.38;5001957;28;19975;-83
2021/12/21 12:17:18;;;;;;;;;;;3.30;93.80;;;2.11;46.39;99444.50;5020746;28;19998;-83
2021/12/21 12:19:54;;;;;;;;;;;2.90;94.50;;;1.65;47.61;99445.19;5004505;28;20405;-83
2021/12/21 12:22:32;;;;;;;;;;;2.50;95.20;;;1.48;51.51;99447.41;5002034;28;19956;-83
2021/12/21 12:24:59;;;;;;;;;;;2.00;98.10;;;1.53;52.27;99447.63;5028632;28;19929;-83
2021/12/21 12:27:28;;;;;;;;;;;1.90;99.80;;;1.70;52.12;99446.22;5006092;28;19925;-83
2021/12/21 12:29:58;;;;;;;;;;;2.00;99.90;;;1.78;51.28;99436.38;5018683;28;19929;-83
2021/12/21 12:32:36;;;;;;;;;;;2.10;99.70;;;1.78;50.97;99442.59;5019714;28;19936;-83
2021/12/21 12:35:11;;;;;;;;;;;2.10;99.60;;;1.68;49.97;99432.25;5013989;28;19932;-83
2021/12/21 12:37:52;;;;;;;;;;;2.10;98.80;;;1.56;49.18;99441.06;5031962;28;19960;-83
2021/12/21 12:40:20;;;;;;;;;;;2.00;98.10;;;1.61;49.09;99433.25;5031559;28;19932;-83